createdAt,value
2018-05-08T00:00:57.952Z,65.62
2018-05-08T00:01:57.957Z,65.81
2018-05-08T00:02:57.965Z,66.00
2018-05-08T00:03:57.967Z,66.35
2018-05-08T00:04:57.971Z,66.55
2018-05-08T00:05:57.976Z,66.93
2018-05-08T00:06:57.982Z,67.12
2018-05-08T00:07:57.987Z,67.32
2018-05-08T00:08:58.080Z,67.32
2018-05-08T00:09:57.997Z,66.83
2018-05-08T00:10:58.002Z,66.45
2018-05-08T00:11:58.006Z,66.55
2018-05-08T00:12:58.011Z,67.12
2018-05-08T00:13:58.016Z,66.64
2018-05-08T00:14:58.022Z,66.64
2018-05-08T00:15:58.024Z,66.64
2018-05-08T00:16:58.031Z,66.35
2018-05-08T00:17:58.036Z,66.35
2018-05-08T00:18:58.040Z,66.93
2018-05-08T00:19:58.044Z,65.88
2018-05-08T00:20:58.052Z,66.93
2018-05-08T00:21:58.055Z,66.26
2018-05-08T00:22:58.060Z,66.45
2018-05-08T00:23:58.065Z,66.93
2018-05-08T00:24:58.068Z,66.55
2018-05-08T00:25:58.075Z,67.41
2018-05-08T00:26:58.079Z,67.12
2018-05-08T00:27:58.084Z,66.74
2018-05-08T00:28:58.089Z,67.02
2018-05-08T00:29:58.094Z,66.74
2018-05-08T00:30:58.099Z,66.64
2018-05-08T00:31:58.104Z,66.93
2018-05-08T00:32:58.109Z,66.93
2018-05-08T00:33:58.113Z,66.93
2018-05-08T00:34:58.117Z,67.02
2018-05-08T00:35:58.121Z,67.22
2018-05-08T00:36:58.126Z,68.08
2018-05-08T00:37:58.132Z,67.02
2018-05-08T00:38:58.137Z,67.89
2018-05-08T00:39:58.140Z,68.05
2018-05-08T00:40:58.145Z,67.95
2018-05-08T00:41:58.154Z,67.76
2018-05-08T00:42:58.155Z,67.47
2018-05-08T00:43:58.159Z,67.12
2018-05-08T00:44:58.164Z,66.80
2018-05-08T00:45:58.169Z,67.41
2018-05-08T00:46:58.173Z,67.47
2018-05-08T00:47:58.178Z,67.85
2018-05-08T00:48:58.182Z,68.05
2018-05-08T00:49:58.187Z,67.66
2018-05-08T00:50:58.192Z,68.33
2018-05-08T00:51:58.197Z,67.66
2018-05-08T00:52:58.202Z,67.66
2018-05-08T00:53:58.206Z,68.14
2018-05-08T00:54:58.211Z,67.76
2018-05-08T00:55:58.214Z,67.95
2018-05-08T00:56:58.220Z,68.24
2018-05-08T00:57:58.224Z,68.33
2018-05-08T00:58:58.229Z,68.52
2018-05-08T00:59:58.233Z,68.52
2018-05-08T01:00:58.237Z,68.81
2018-05-08T01:01:58.243Z,68.81
2018-05-08T01:02:58.247Z,68.91
2018-05-08T01:03:58.248Z,68.91
2018-05-08T01:04:58.279Z,69.01
2018-05-08T01:05:58.261Z,68.33
2018-05-08T01:06:58.264Z,68.14
2018-05-08T01:07:58.268Z,68.33
2018-05-08T01:08:58.272Z,69.07
2018-05-08T01:09:58.275Z,69.35
2018-05-08T01:10:58.281Z,68.30
2018-05-08T01:11:58.286Z,68.81
2018-05-08T01:12:58.289Z,68.97
2018-05-08T01:13:58.294Z,69.07
2018-05-08T01:14:58.299Z,69.07
2018-05-08T01:15:58.302Z,68.33
2018-05-08T01:16:58.376Z,68.33
2018-05-08T01:17:58.311Z,67.95
2018-05-08T01:18:58.316Z,67.76
2018-05-08T01:19:58.321Z,67.28
2018-05-08T01:20:58.325Z,67.18
2018-05-08T01:21:58.327Z,68.14
2018-05-08T01:22:58.333Z,68.14
2018-05-08T01:23:58.336Z,67.95
2018-05-08T01:24:58.342Z,67.57
2018-05-08T01:25:58.347Z,67.09
2018-05-08T01:26:58.350Z,66.99
2018-05-08T01:27:58.356Z,67.85
2018-05-08T01:28:58.357Z,67.57
2018-05-08T01:29:58.366Z,67.66
2018-05-08T01:30:58.367Z,68.05
2018-05-08T01:31:58.370Z,68.14
2018-05-08T01:32:58.381Z,67.47
2018-05-08T01:33:58.388Z,67.76
2018-05-08T01:34:58.382Z,67.95
2018-05-08T01:35:58.391Z,67.95
2018-05-08T01:36:58.392Z,67.95
2018-05-08T01:37:58.396Z,68.05
2018-05-08T01:38:58.401Z,67.76
2018-05-08T01:39:58.404Z,68.24
2018-05-08T01:40:58.407Z,67.95
2018-05-08T01:41:58.418Z,67.66
2018-05-08T01:42:58.421Z,68.49
2018-05-08T01:43:58.422Z,68.30
2018-05-08T01:44:58.426Z,68.49
2018-05-08T01:45:58.429Z,68.49
2018-05-08T01:46:58.433Z,68.49
2018-05-08T01:47:58.440Z,68.87
2018-05-08T01:48:58.442Z,69.07
2018-05-08T01:49:58.446Z,69.54
2018-05-08T01:50:58.460Z,68.87
2018-05-08T01:51:58.454Z,68.68
2018-05-08T01:52:58.460Z,68.40
2018-05-08T01:53:58.466Z,68.49
2018-05-08T01:54:58.467Z,68.21
2018-05-08T01:55:58.472Z,69.35
2018-05-08T01:56:58.475Z,69.17
2018-05-08T01:57:58.479Z,69.54
2018-05-08T01:58:58.484Z,69.54
2018-05-08T01:59:58.487Z,69.26
2018-05-08T02:00:58.492Z,69.26
2018-05-08T02:01:58.497Z,69.45
2018-05-08T02:02:58.501Z,69.45
2018-05-08T02:03:58.503Z,70.03
2018-05-08T02:04:58.508Z,69.93
2018-05-08T02:05:58.511Z,70.50
2018-05-08T02:06:58.516Z,70.60
2018-05-08T02:07:58.520Z,70.89
2018-05-08T02:08:58.526Z,70.31
2018-05-08T02:09:58.529Z,70.50
2018-05-08T02:10:58.531Z,70.50
2018-05-08T02:11:58.534Z,71.08
2018-05-08T02:12:58.540Z,71.52
2018-05-08T02:13:58.544Z,71.33
2018-05-08T02:14:58.548Z,71.91
2018-05-08T02:15:58.552Z,71.71
2018-05-08T02:16:58.556Z,71.62
2018-05-08T02:17:58.561Z,71.52
2018-05-08T02:18:58.564Z,70.98
2018-05-08T02:19:58.569Z,71.33
2018-05-08T02:20:58.572Z,72.09
2018-05-08T02:21:58.576Z,72.19
2018-05-08T02:22:58.580Z,72.67
2018-05-08T02:23:58.587Z,72.29
2018-05-08T02:24:58.619Z,72.29
2018-05-08T02:25:58.624Z,72.67
2018-05-08T02:26:58.595Z,72.09
2018-05-08T02:27:58.599Z,71.71
2018-05-08T02:28:58.603Z,72.29
2018-05-08T02:29:58.607Z,71.91
2018-05-08T02:30:58.705Z,71.42
2018-05-08T02:31:58.615Z,71.42
2018-05-08T02:32:58.619Z,71.62
2018-05-08T02:33:58.626Z,71.62
2018-05-08T02:34:58.626Z,71.23
2018-05-08T02:35:58.630Z,70.85
2018-05-08T02:36:58.634Z,70.98
2018-05-08T02:37:58.638Z,71.14
2018-05-08T02:38:58.643Z,70.66
2018-05-08T02:39:58.645Z,70.85
2018-05-08T02:40:58.649Z,70.76
2018-05-08T02:41:58.660Z,71.42
2018-05-08T02:42:58.661Z,71.62
2018-05-08T02:43:58.661Z,71.62
2018-05-08T02:44:58.664Z,71.62
2018-05-08T02:45:58.669Z,71.62
2018-05-08T02:46:58.674Z,71.62
2018-05-08T02:47:58.674Z,71.46
2018-05-08T02:48:58.739Z,71.33
2018-05-08T02:49:58.685Z,72.09
2018-05-08T02:50:58.687Z,71.71
2018-05-08T02:51:58.690Z,71.62
2018-05-08T02:52:58.694Z,72.38
2018-05-08T02:53:58.702Z,72.38
2018-05-08T02:54:58.707Z,72.58
2018-05-08T02:55:58.706Z,72.19
2018-05-08T02:56:58.714Z,71.62
2018-05-08T02:57:58.714Z,71.52
2018-05-08T02:58:58.717Z,72.86
2018-05-08T02:59:58.721Z,73.15
2018-05-08T03:00:58.723Z,72.86
2018-05-08T03:01:58.748Z,73.05
2018-05-08T03:02:58.732Z,73.54
2018-05-08T03:03:58.734Z,73.15
2018-05-08T03:04:58.739Z,72.19
2018-05-08T03:05:58.743Z,71.71
2018-05-08T03:06:58.747Z,71.42
2018-05-08T03:07:58.751Z,71.33
2018-05-08T03:08:58.753Z,71.33
2018-05-08T03:09:58.759Z,71.33
2018-05-08T03:10:58.761Z,72.09
2018-05-08T03:11:58.764Z,72.67
2018-05-08T03:12:58.768Z,72.86
2018-05-08T03:13:58.772Z,71.91
2018-05-08T03:14:58.775Z,72.09
2018-05-08T03:15:58.782Z,72.00
2018-05-08T03:16:58.781Z,72.00
2018-05-08T03:17:58.786Z,72.19
2018-05-08T03:18:58.793Z,72.67
2018-05-08T03:19:58.792Z,72.96
2018-05-08T03:20:58.797Z,72.86
2018-05-08T03:21:58.801Z,72.96
2018-05-08T03:22:58.804Z,72.86
2018-05-08T03:23:58.807Z,72.09
2018-05-08T03:24:58.815Z,72.38
2018-05-08T03:25:58.815Z,72.29
2018-05-08T03:26:58.818Z,72.86
2018-05-08T03:27:58.835Z,73.05
2018-05-08T03:28:58.825Z,73.24
2018-05-08T03:29:58.829Z,74.20
2018-05-08T03:30:58.833Z,74.20
2018-05-08T03:31:58.835Z,74.16
2018-05-08T03:32:58.840Z,74.36
2018-05-08T03:33:58.843Z,73.69
2018-05-08T03:34:58.846Z,74.26
2018-05-08T03:35:58.851Z,74.11
2018-05-08T03:36:58.853Z,73.05
2018-05-08T03:37:58.857Z,73.82
2018-05-08T03:38:58.859Z,73.69
2018-05-08T03:39:58.865Z,74.11
2018-05-08T03:40:58.867Z,74.40
2018-05-08T03:41:58.871Z,73.97
2018-05-08T03:42:58.874Z,74.45
2018-05-08T03:43:58.877Z,74.16
2018-05-08T03:44:58.881Z,74.16
2018-05-08T03:45:58.884Z,74.55
2018-05-08T03:46:58.887Z,74.55
2018-05-08T03:47:58.890Z,74.55
2018-05-08T03:48:58.892Z,75.02
2018-05-08T03:49:58.899Z,73.79
2018-05-08T03:50:58.900Z,73.91
2018-05-08T03:51:58.903Z,73.91
2018-05-08T03:52:58.908Z,74.20
2018-05-08T03:53:58.911Z,74.84
2018-05-08T03:54:58.915Z,74.26
2018-05-08T03:55:58.917Z,74.65
2018-05-08T03:56:58.920Z,75.12
2018-05-08T03:57:58.924Z,75.41
2018-05-08T03:58:58.927Z,75.12
2018-05-08T03:59:58.930Z,75.12
2018-05-08T04:00:58.933Z,75.12
2018-05-08T04:01:58.938Z,75.22
2018-05-08T04:02:58.942Z,75.22
2018-05-08T04:03:58.942Z,75.41
2018-05-08T04:04:58.948Z,75.60
2018-05-08T04:05:58.950Z,74.84
2018-05-08T04:06:58.955Z,75.12
2018-05-08T04:07:58.956Z,74.45
2018-05-08T04:08:58.960Z,75.12
2018-05-08T04:09:58.964Z,75.31
2018-05-08T04:10:58.968Z,74.84
2018-05-08T04:11:58.974Z,75.31
2018-05-08T04:12:58.974Z,74.93
2018-05-08T04:13:58.977Z,75.41
2018-05-08T04:14:59.030Z,75.60
2018-05-08T04:15:58.983Z,76.08
2018-05-08T04:16:58.986Z,76.08
2018-05-08T04:17:58.997Z,76.56
2018-05-08T04:18:58.992Z,76.84
2018-05-08T04:19:58.996Z,77.09
2018-05-08T04:20:59.050Z,77.00
2018-05-08T04:21:59.003Z,78.05
2018-05-08T04:22:59.006Z,77.57
2018-05-08T04:23:59.008Z,78.09
2018-05-08T04:24:59.012Z,78.09
2018-05-08T04:25:59.015Z,78.14
2018-05-08T04:26:59.020Z,78.05
2018-05-08T04:27:59.023Z,78.05
2018-05-08T04:28:59.026Z,77.86
2018-05-08T04:29:59.028Z,78.05
2018-05-08T04:30:59.031Z,78.24
2018-05-08T04:31:59.034Z,78.53
2018-05-08T04:32:59.038Z,78.63
2018-05-08T04:33:59.042Z,79.00
2018-05-08T04:34:59.044Z,80.92
2018-05-08T04:35:59.047Z,80.63
2018-05-08T04:36:59.051Z,80.25
2018-05-08T04:37:59.054Z,80.06
2018-05-08T04:38:59.057Z,80.44
2018-05-08T04:39:59.059Z,79.96
2018-05-08T04:40:59.064Z,79.96
2018-05-08T04:41:59.066Z,80.82
2018-05-08T04:42:59.071Z,80.92
2018-05-08T04:43:59.073Z,80.73
2018-05-08T04:44:59.076Z,80.44
2018-05-08T04:45:59.080Z,81.68
2018-05-08T04:46:59.084Z,81.21
2018-05-08T04:47:59.086Z,80.44
2018-05-08T04:48:59.090Z,82.64
2018-05-08T04:49:59.093Z,82.26
2018-05-08T04:50:59.097Z,81.97
2018-05-08T04:51:59.098Z,82.45
2018-05-08T04:52:59.108Z,82.54
2018-05-08T04:53:59.105Z,82.07
2018-05-08T04:54:59.110Z,80.92
2018-05-08T04:55:59.113Z,80.16
2018-05-08T04:56:59.115Z,79.52
2018-05-08T04:57:59.119Z,78.95
2018-05-08T04:58:59.122Z,79.24
2018-05-08T04:59:59.125Z,79.62
2018-05-08T05:00:59.132Z,79.43
2018-05-08T05:01:59.132Z,79.81
2018-05-08T05:02:59.138Z,79.91
2018-05-08T05:03:59.137Z,78.86
2018-05-08T05:04:59.144Z,77.99
2018-05-08T05:05:59.145Z,78.19
2018-05-08T05:06:59.171Z,78.28
2018-05-08T05:07:59.152Z,77.42
2018-05-08T05:08:59.154Z,77.04
2018-05-08T05:09:59.157Z,77.36
2018-05-08T05:10:59.187Z,77.08
2018-05-08T05:11:59.164Z,77.36
2018-05-08T05:12:59.182Z,77.08
2018-05-08T05:13:59.171Z,77.17
2018-05-08T05:14:59.175Z,77.65
2018-05-08T05:15:59.177Z,77.08
2018-05-08T05:16:59.184Z,76.40
2018-05-08T05:17:59.183Z,75.64
2018-05-08T05:18:59.188Z,75.83
2018-05-08T05:19:59.195Z,75.73
2018-05-08T05:20:59.194Z,75.54
2018-05-08T05:21:59.203Z,76.69
2018-05-08T05:22:59.201Z,76.40
2018-05-08T05:23:59.205Z,76.21
2018-05-08T05:24:59.209Z,77.08
2018-05-08T05:25:59.212Z,75.73
2018-05-08T05:26:59.220Z,76.15
2018-05-08T05:27:59.218Z,75.68
2018-05-08T05:28:59.223Z,75.48
2018-05-08T05:29:59.227Z,75.58
2018-05-08T05:30:59.234Z,75.77
2018-05-08T05:31:59.237Z,75.58
2018-05-08T05:32:59.237Z,75.77
2018-05-08T05:33:59.241Z,75.58
2018-05-08T05:34:59.245Z,75.10
2018-05-08T05:35:59.246Z,75.39
2018-05-08T05:36:59.255Z,75.48
2018-05-08T05:37:59.255Z,75.10
2018-05-08T05:38:59.263Z,75.29
2018-05-08T05:39:59.262Z,75.48
2018-05-08T05:40:59.266Z,74.43
2018-05-08T05:41:59.274Z,74.95
2018-05-08T05:42:59.274Z,74.27
2018-05-08T05:43:59.277Z,75.14
2018-05-08T05:44:59.282Z,74.37
2018-05-08T05:45:59.285Z,74.76
2018-05-08T05:46:59.289Z,74.47
2018-05-08T05:47:59.292Z,74.37
2018-05-08T05:48:59.296Z,73.99
2018-05-08T05:49:59.301Z,74.37
2018-05-08T05:50:59.305Z,73.99
2018-05-08T05:51:59.308Z,74.47
2018-05-08T05:52:59.313Z,74.18
2018-05-08T05:53:59.316Z,74.18
2018-05-08T05:54:59.321Z,74.57
2018-05-08T05:55:59.324Z,74.18
2018-05-08T05:56:59.332Z,74.22
2018-05-08T05:57:59.333Z,73.93
2018-05-08T05:58:59.336Z,74.31
2018-05-08T05:59:59.374Z,73.07
2018-05-08T06:00:59.344Z,73.07
2018-05-08T06:01:59.347Z,73.26
2018-05-08T06:02:59.352Z,73.45
2018-05-08T06:03:59.356Z,73.65
2018-05-08T06:04:59.360Z,72.78
2018-05-08T06:05:59.365Z,73.65
2018-05-08T06:06:59.367Z,71.72
2018-05-08T06:07:59.372Z,71.72
2018-05-08T06:08:59.376Z,72.20
2018-05-08T06:09:59.381Z,72.68
2018-05-08T06:10:59.386Z,72.01
2018-05-08T06:11:59.403Z,72.63
2018-05-08T06:12:59.394Z,71.95
2018-05-08T06:13:59.398Z,71.66
2018-05-08T06:14:59.407Z,71.76
2018-05-08T06:15:59.406Z,71.76
2018-05-08T06:16:59.411Z,71.95
2018-05-08T06:17:59.416Z,71.28
2018-05-08T06:18:59.419Z,71.86
2018-05-08T06:19:59.424Z,72.63
2018-05-08T06:20:59.429Z,71.47
2018-05-08T06:21:59.431Z,70.99
2018-05-08T06:22:59.437Z,70.99
2018-05-08T06:23:59.442Z,71.19
2018-05-08T06:24:59.446Z,71.19
2018-05-08T06:25:59.451Z,70.99
2018-05-08T06:26:59.456Z,71.47
2018-05-08T06:27:59.459Z,71.03
2018-05-08T06:28:59.464Z,70.84
2018-05-08T06:29:59.472Z,70.17
2018-05-08T06:30:59.474Z,69.97
2018-05-08T06:31:59.480Z,69.87
2018-05-08T06:32:59.484Z,70.45
2018-05-08T06:33:59.489Z,70.84
2018-05-08T06:34:59.498Z,69.78
2018-05-08T06:35:59.497Z,70.36
2018-05-08T06:36:59.500Z,69.59
2018-05-08T06:37:59.507Z,69.30
2018-05-08T06:38:59.548Z,68.91
2018-05-08T06:39:59.599Z,69.49
2018-05-08T06:40:59.521Z,68.15
2018-05-08T06:41:59.526Z,68.73
2018-05-08T06:42:59.531Z,69.59
2018-05-08T06:43:59.536Z,69.53
2018-05-08T06:44:59.542Z,68.95
2018-05-08T06:45:59.546Z,68.76
2018-05-08T06:46:59.553Z,69.53
2018-05-08T06:47:59.555Z,69.05
2018-05-08T06:48:59.560Z,68.66
2018-05-08T06:49:59.566Z,68.85
2018-05-08T06:50:59.572Z,68.37
2018-05-08T06:51:59.576Z,68.28
2018-05-08T06:52:59.581Z,68.37
2018-05-08T06:53:59.586Z,69.14
2018-05-08T06:54:59.616Z,68.18
2018-05-08T06:55:59.601Z,67.64
2018-05-08T06:56:59.602Z,67.74
2018-05-08T06:57:59.606Z,68.02
2018-05-08T06:58:59.610Z,68.60
2018-05-08T06:59:59.616Z,67.83
2018-05-08T07:00:59.623Z,67.07
2018-05-08T07:01:59.627Z,67.93
2018-05-08T07:02:59.633Z,68.60
2018-05-08T07:03:59.638Z,68.51
2018-05-08T07:04:59.644Z,68.70
2018-05-08T07:05:59.648Z,68.21
2018-05-08T07:06:59.659Z,68.63
2018-05-08T07:07:59.660Z,67.96
2018-05-08T07:08:59.664Z,67.77
2018-05-08T07:09:59.670Z,67.48
2018-05-08T07:10:59.676Z,66.42
2018-05-08T07:11:59.681Z,66.52
2018-05-08T07:12:59.685Z,66.33
2018-05-08T07:13:59.692Z,67.00
2018-05-08T07:14:59.698Z,66.71
2018-05-08T07:15:59.853Z,66.23
2018-05-08T07:16:59.707Z,66.71
2018-05-08T07:17:59.719Z,66.65
2018-05-08T07:18:59.721Z,65.56
2018-05-08T07:19:59.724Z,65.75
2018-05-08T07:20:59.731Z,66.14
2018-05-08T07:21:59.737Z,66.36
2018-05-08T07:22:59.742Z,67.13
2018-05-08T07:23:59.806Z,66.74
2018-05-08T07:24:59.753Z,66.36
2018-05-08T07:25:59.760Z,66.17
2018-05-08T07:26:59.765Z,66.07
2018-05-08T07:27:59.771Z,65.88
2018-05-08T07:28:59.777Z,65.01
2018-05-08T07:29:59.798Z,65.01
2018-05-08T07:30:59.813Z,64.76
2018-05-08T07:31:59.795Z,65.24
2018-05-08T07:32:59.801Z,65.53
2018-05-08T07:33:59.807Z,65.72
2018-05-08T07:34:59.812Z,64.66
2018-05-08T07:35:59.818Z,64.66
2018-05-08T07:36:59.825Z,64.37
2018-05-08T07:37:59.832Z,64.18
2018-05-08T07:38:59.836Z,64.56
2018-05-08T07:39:59.846Z,64.69
2018-05-08T07:40:59.851Z,64.50
2018-05-08T07:41:59.857Z,64.89
2018-05-08T07:42:59.862Z,64.79
2018-05-08T07:43:59.866Z,64.50
2018-05-08T07:44:59.875Z,63.82
2018-05-08T07:45:59.880Z,64.59
2018-05-08T07:46:59.887Z,63.82
2018-05-08T07:47:59.892Z,64.50
2018-05-08T07:48:59.899Z,63.09
2018-05-08T07:49:59.906Z,62.80
2018-05-08T07:50:59.913Z,61.19
2018-05-08T07:51:59.923Z,60.42
2018-05-08T07:52:59.926Z,59.10
2018-05-08T07:53:59.934Z,57.90
2018-05-08T07:54:59.941Z,55.93
2018-05-08T07:55:59.948Z,53.69
2018-05-08T07:56:59.958Z,51.42
2018-05-08T07:57:59.967Z,48.57
2018-05-08T07:58:59.978Z,48.18
2018-05-08T07:59:59.987Z,48.85
2018-05-08T08:00:59.998Z,47.45
2018-05-08T08:02:00.010Z,45.82
2018-05-08T08:03:00.022Z,45.45
2018-05-08T08:04:00.033Z,44.19
2018-05-08T08:05:00.046Z,44.83
2018-05-08T08:06:00.058Z,45.41
2018-05-08T08:07:00.071Z,43.61
2018-05-08T08:08:00.084Z,42.78
2018-05-08T08:09:00.098Z,41.90
2018-05-08T08:10:00.113Z,41.98
2018-05-08T08:11:00.126Z,42.14
2018-05-08T08:12:00.138Z,41.26
2018-05-08T08:13:00.153Z,41.36
2018-05-08T08:14:00.167Z,40.60
2018-05-08T08:15:00.182Z,40.89
2018-05-08T08:16:00.195Z,40.21
2018-05-08T08:17:00.215Z,39.84
2018-05-08T08:18:00.226Z,40.29
2018-05-08T08:19:00.241Z,40.95
2018-05-08T08:20:00.255Z,40.39
2018-05-08T08:21:00.271Z,40.97
2018-05-08T08:22:00.287Z,40.70
2018-05-08T08:23:00.303Z,40.68
2018-05-08T08:24:00.317Z,39.90
2018-05-08T08:25:00.335Z,38.42
2018-05-08T08:26:00.354Z,39.20
2018-05-08T08:27:00.367Z,40.37
2018-05-08T08:28:00.383Z,41.78
2018-05-08T08:29:00.401Z,41.73
2018-05-08T08:30:00.416Z,40.85
2018-05-08T08:31:00.436Z,40.48
2018-05-08T08:32:00.449Z,39.96
2018-05-08T08:33:00.472Z,40.29
2018-05-08T08:34:00.482Z,40.97
2018-05-08T08:35:00.500Z,39.75
2018-05-08T08:36:00.525Z,38.92
2018-05-08T08:37:00.532Z,37.37
2018-05-08T08:38:00.551Z,38.67
2018-05-08T08:39:00.570Z,39.36
2018-05-08T08:40:00.585Z,38.95
2018-05-08T08:41:00.611Z,39.37
2018-05-08T08:42:00.620Z,38.95
2018-05-08T08:43:00.639Z,39.80
2018-05-08T08:44:00.656Z,40.23
2018-05-08T08:45:00.674Z,40.93
2018-05-08T08:46:00.691Z,39.86
2018-05-08T08:47:00.709Z,39.04
2018-05-08T08:48:00.726Z,37.89
2018-05-08T08:49:00.745Z,38.34
2018-05-08T08:50:00.763Z,37.87
2018-05-08T08:51:00.781Z,38.52
2018-05-08T08:52:00.798Z,38.56
2018-05-08T08:53:00.816Z,37.68
2018-05-08T08:54:00.835Z,38.98
2018-05-08T08:55:00.854Z,38.18
2018-05-08T08:56:00.917Z,38.71
2018-05-08T08:57:00.890Z,39.29
2018-05-08T08:58:00.908Z,39.41
2018-05-08T08:59:00.932Z,38.09
2018-05-08T09:00:00.944Z,37.29
2018-05-08T09:01:00.962Z,37.70
2018-05-08T09:02:00.980Z,36.86
2018-05-08T09:03:00.998Z,35.88
2018-05-08T09:04:01.095Z,35.38
2018-05-08T09:05:01.034Z,35.39
2018-05-08T09:06:01.054Z,35.63
2018-05-08T09:07:01.070Z,35.69
2018-05-08T09:08:01.088Z,36.24
2018-05-08T09:09:01.105Z,37.41
2018-05-08T09:10:01.127Z,38.34
2018-05-08T09:11:01.143Z,38.36
2018-05-08T09:12:01.159Z,38.09
2018-05-08T09:13:01.183Z,36.80
2018-05-08T09:14:01.196Z,35.16
2018-05-08T09:15:01.216Z,33.80
2018-05-08T09:16:01.234Z,34.39
2018-05-08T09:17:01.250Z,34.24
2018-05-08T09:18:01.268Z,35.39
2018-05-08T09:19:01.287Z,35.77
2018-05-08T09:20:01.304Z,36.72
2018-05-08T09:21:01.322Z,37.52
2018-05-08T09:22:01.343Z,36.49
2018-05-08T09:23:01.359Z,37.07
2018-05-08T09:24:01.380Z,35.84
2018-05-08T09:25:01.397Z,34.68
2018-05-08T09:26:01.414Z,34.67
2018-05-08T09:27:01.433Z,35.36
2018-05-08T09:28:01.450Z,35.20
2018-05-08T09:29:01.469Z,36.80
2018-05-08T09:30:01.487Z,38.03
2018-05-08T09:31:01.507Z,38.91
2018-05-08T09:32:01.524Z,39.49
2018-05-08T09:33:01.543Z,38.07
2018-05-08T09:34:01.567Z,38.87
2018-05-08T09:35:01.581Z,38.32
2018-05-08T09:36:01.597Z,36.90
2018-05-08T09:37:01.621Z,35.66
2018-05-08T09:38:01.635Z,33.64
2018-05-08T09:39:01.659Z,33.09
2018-05-08T09:40:01.671Z,32.51
2018-05-08T09:41:01.725Z,32.34
2018-05-08T09:42:01.710Z,30.25
2018-05-08T09:43:01.728Z,32.06
2018-05-08T09:44:01.746Z,32.48
2018-05-08T09:45:01.764Z,32.29
2018-05-08T09:46:01.784Z,32.51
2018-05-08T09:47:01.803Z,32.09
2018-05-08T09:48:01.821Z,33.14
2018-05-08T09:49:01.916Z,34.08
2018-05-08T09:50:01.859Z,35.31
2018-05-08T09:51:01.879Z,35.57
2018-05-08T09:52:01.898Z,37.12
2018-05-08T09:53:01.916Z,36.35
2018-05-08T09:54:01.952Z,35.88
2018-05-08T09:55:01.953Z,35.33
2018-05-08T09:56:01.977Z,34.29
2018-05-08T09:57:01.990Z,33.72
2018-05-08T09:58:02.010Z,33.54
2018-05-08T09:59:02.028Z,34.78
2018-05-08T10:00:02.046Z,34.00
2018-05-08T10:01:02.065Z,34.63
2018-05-08T10:02:02.083Z,35.25
2018-05-08T10:03:02.101Z,35.33
2018-05-08T10:04:02.120Z,34.86
2018-05-08T10:05:02.139Z,33.59
2018-05-08T10:06:02.254Z,32.42
2018-05-08T10:07:02.177Z,32.91
2018-05-08T10:08:02.193Z,32.79
2018-05-08T10:09:02.213Z,33.28
2018-05-08T10:10:02.234Z,33.67
2018-05-08T10:11:02.250Z,33.56
2018-05-08T10:12:02.268Z,35.28
2018-05-08T10:13:02.285Z,34.40
2018-05-08T10:14:02.304Z,33.67
2018-05-08T10:15:02.325Z,32.14
2018-05-08T10:16:02.340Z,31.95
2018-05-08T10:17:02.358Z,31.56
2018-05-08T10:18:02.378Z,32.48
2018-05-08T10:19:02.397Z,32.23
2018-05-08T10:20:02.412Z,31.65
2018-05-08T10:21:02.431Z,31.56
2018-05-08T10:22:02.449Z,31.43
2018-05-08T10:23:02.469Z,30.38
2018-05-08T10:24:02.484Z,30.00
2018-05-08T10:25:02.502Z,29.45
2018-05-08T10:26:02.522Z,28.57
2018-05-08T10:27:02.538Z,29.32
2018-05-08T10:28:02.555Z,28.82
2018-05-08T10:29:02.573Z,29.88
2018-05-08T10:30:02.592Z,30.74
2018-05-08T10:31:02.608Z,30.74
2018-05-08T10:32:02.629Z,30.54
2018-05-08T10:33:02.731Z,29.20
2018-05-08T10:34:02.662Z,29.31
2018-05-08T10:35:02.684Z,28.83
2018-05-08T10:36:02.695Z,29.79
2018-05-08T10:37:02.715Z,31.51
2018-05-08T10:38:02.731Z,31.57
2018-05-08T10:39:02.749Z,31.95
2018-05-08T10:40:02.765Z,32.45
2018-05-08T10:41:02.782Z,32.28
2018-05-08T10:42:02.802Z,32.86
2018-05-08T10:43:02.817Z,31.69
2018-05-08T10:44:02.834Z,31.67
2018-05-08T10:45:02.851Z,31.06
2018-05-08T10:46:02.868Z,31.64
2018-05-08T10:47:02.887Z,32.32
2018-05-08T10:48:02.905Z,31.76
2018-05-08T10:49:02.920Z,31.46
2018-05-08T10:50:02.937Z,31.46
2018-05-08T10:51:02.953Z,31.66
2018-05-08T10:52:02.969Z,31.60
2018-05-08T10:53:02.987Z,30.24
2018-05-08T10:54:03.003Z,29.36
2018-05-08T10:55:03.021Z,29.17
2018-05-08T10:56:03.036Z,28.97
2018-05-08T10:57:03.052Z,28.89
2018-05-08T10:58:03.069Z,29.95
2018-05-08T10:59:03.085Z,28.19
2018-05-08T11:00:03.103Z,27.62
2018-05-08T11:01:03.117Z,27.33
2018-05-08T11:02:03.133Z,27.73
2018-05-08T11:03:03.149Z,27.54
2018-05-08T11:04:03.164Z,27.16
2018-05-08T11:05:03.184Z,27.34
2018-05-08T11:06:03.201Z,28.58
2018-05-08T11:07:03.215Z,29.83
2018-05-08T11:08:03.228Z,31.76
2018-05-08T11:09:03.244Z,31.73
2018-05-08T11:10:03.261Z,32.02
2018-05-08T11:11:03.276Z,33.15
2018-05-08T11:12:03.290Z,32.78
2018-05-08T11:13:03.308Z,31.60
2018-05-08T11:14:03.686Z,31.30
2018-05-08T11:15:03.336Z,31.60
2018-05-08T11:16:03.351Z,31.29
2018-05-08T11:17:03.366Z,32.07
2018-05-08T11:18:03.454Z,31.29
2018-05-08T11:19:03.395Z,31.68
2018-05-08T11:20:03.409Z,32.35
2018-05-08T11:21:03.423Z,32.82
2018-05-08T11:22:03.438Z,32.82
2018-05-08T11:23:03.455Z,33.29
2018-05-08T11:24:03.467Z,32.92
2018-05-08T11:25:03.479Z,32.75
2018-05-08T11:26:03.493Z,33.14
2018-05-08T11:27:03.507Z,31.58
2018-05-08T11:28:03.519Z,31.50
2018-05-08T11:29:03.532Z,31.60
2018-05-08T11:30:03.546Z,31.60
2018-05-08T11:31:03.561Z,31.77
2018-05-08T11:32:03.574Z,31.58
2018-05-08T11:33:03.584Z,31.58
2018-05-08T11:34:03.597Z,32.75
2018-05-08T11:35:03.610Z,32.84
2018-05-08T11:36:03.620Z,32.34
2018-05-08T11:37:03.636Z,32.52
2018-05-08T11:38:03.647Z,32.34
2018-05-08T11:39:03.666Z,32.23
2018-05-08T11:40:03.674Z,32.15
2018-05-08T11:41:03.685Z,32.04
2018-05-08T11:42:03.697Z,31.57
2018-05-08T11:43:03.709Z,29.82
2018-05-08T11:44:03.721Z,30.30
2018-05-08T11:45:03.733Z,30.01
2018-05-08T11:46:03.745Z,30.00
2018-05-08T11:47:03.764Z,29.51
2018-05-08T11:48:03.769Z,28.85
2018-05-08T11:49:03.781Z,28.25
2018-05-08T11:50:03.816Z,29.02
2018-05-08T11:51:03.805Z,29.02
2018-05-08T11:52:03.816Z,30.68
2018-05-08T11:53:03.833Z,31.07
2018-05-08T11:54:03.841Z,30.68
2018-05-08T11:55:03.853Z,30.58
2018-05-08T11:56:03.867Z,31.26
2018-05-08T11:57:03.877Z,31.35
2018-05-08T11:58:03.888Z,31.55
2018-05-08T11:59:03.901Z,32.13
2018-05-08T12:00:03.910Z,32.91
2018-05-08T12:01:04.098Z,33.31
2018-05-08T12:02:03.934Z,33.41
2018-05-08T12:03:03.945Z,31.26
2018-05-08T12:04:03.956Z,29.72
2018-05-08T12:05:03.968Z,30.50
2018-05-08T12:06:03.980Z,29.54
2018-05-08T12:07:03.991Z,29.25
2018-05-08T12:08:04.001Z,28.66
2018-05-08T12:09:04.046Z,29.83
2018-05-08T12:10:04.025Z,29.74
2018-05-08T12:11:04.040Z,29.15
2018-05-08T12:12:04.049Z,29.05
2018-05-08T12:13:04.060Z,31.48
2018-05-08T12:14:04.071Z,31.57
2018-05-08T12:15:04.083Z,32.24
2018-05-08T12:16:04.094Z,32.54
2018-05-08T12:17:04.112Z,34.38
2018-05-08T12:18:04.116Z,35.84
2018-05-08T12:19:04.128Z,33.51
2018-05-08T12:20:04.138Z,31.94
2018-05-08T12:21:04.149Z,32.62
2018-05-08T12:22:04.160Z,33.12
2018-05-08T12:23:04.172Z,33.51
2018-05-08T12:24:04.183Z,33.51
2018-05-08T12:25:04.195Z,32.82
2018-05-08T12:26:04.205Z,33.51
2018-05-08T12:27:04.217Z,33.22
2018-05-08T12:28:04.227Z,32.91
2018-05-08T12:29:04.241Z,33.49
2018-05-08T12:30:04.250Z,33.29
2018-05-08T12:31:04.262Z,32.52
2018-05-08T12:32:04.272Z,33.29
2018-05-08T12:33:04.284Z,32.15
2018-05-08T12:34:04.296Z,33.01
2018-05-08T12:35:04.306Z,33.22
2018-05-08T12:36:04.323Z,33.12
2018-05-08T12:37:04.327Z,32.15
2018-05-08T12:38:04.338Z,32.15
2018-05-08T12:39:04.349Z,32.45
2018-05-08T12:40:04.360Z,32.17
2018-05-08T12:41:04.370Z,33.23
2018-05-08T12:42:04.402Z,33.62
2018-05-08T12:43:04.393Z,33.43
2018-05-08T12:44:04.404Z,33.72
2018-05-08T12:45:04.415Z,33.53
2018-05-08T12:46:04.426Z,33.34
2018-05-08T12:47:04.437Z,33.54
2018-05-08T12:48:04.448Z,33.44
2018-05-08T12:49:04.458Z,33.44
2018-05-08T12:50:04.470Z,32.67
2018-05-08T12:51:04.481Z,32.35
2018-05-08T12:52:04.493Z,32.26
2018-05-08T12:53:04.505Z,32.84